Time;durP1;ratioP1;P1;durP2;ratioP2;P2;SDS_P1;SDS_P2;PMS_P1;PMS_P2;Temp;Humidity;BMP_temperature;BMP_pressure;BME280_temperature;BME280_humidity;BME280_pressure;Samples;Min_cycle;Max_cycle;Signal;HPM_P1;HPM_P2
2023/05/05 00:01:36;;;;;;;14.67;3.57;;;;;;;;;;5111378;28;20279;-77
2023/05/05 00:04:04;;;;;;;15.00;3.37;;;;;;;;;;5111218;28;20289;-77
2023/05/05 00:06:31;;;;;;;14.70;3.30;;;;;;;;;;5111158;28;20194;-77
2023/05/05 00:08:58;;;;;;;13.70;3.17;;;;;;;;;;5110699;28;20670;-77
2023/05/05 00:11:27;;;;;;;19.23;3.37;;;;;;;;;;5111312;28;20665;-77
2023/05/05 00:13:54;;;;;;;13.23;3.80;;;;;;;;;;5111027;28;20598;-77
2023/05/05 00:16:22;;;;;;;15.27;3.50;;;;;;;;;;5111402;28;20190;-78
2023/05/05 00:18:49;;;;;;;15.77;3.70;;;;;;;;;;5111372;28;20271;-77
2023/05/05 00:21:16;;;;;;;13.33;3.73;;;;;;;;;;5110916;28;20225;-78
2023/05/05 00:23:43;;;;;;;16.13;3.50;;;;;;;;;;5111627;28;20292;-77
2023/05/05 00:26:10;;;;;;;12.73;3.70;;;;;;;;;;5111351;28;20194;-77
2023/05/05 00:28:39;;;;;;;12.77;3.60;;;;;;;;;;5111388;28;20281;-77
2023/05/05 00:31:06;;;;;;;17.87;3.70;;;;;;;;;;5110942;28;20693;-78
2023/05/05 00:33:33;;;;;;;15.70;3.83;;;;;;;;;;5111295;28;20225;-78
2023/05/05 00:36:00;;;;;;;15.37;3.57;;;;;;;;;;5110563;28;20670;-77
2023/05/05 00:38:28;;;;;;;13.90;3.50;;;;;;;;;;5111368;28;20194;-77
2023/05/05 00:40:55;;;;;;;16.63;3.57;;;;;;;;;;5111052;28;20259;-77
2023/05/05 00:43:22;;;;;;;12.67;4.13;;;;;;;;;;5110849;28;20317;-77
2023/05/05 00:45:54;;;;;;;16.60;3.67;;;;;;;;;;5111458;28;20194;-77
2023/05/05 00:48:23;;;;;;;14.70;3.63;;;;;;;;;;5111178;28;20288;-78
2023/05/05 00:50:50;;;;;;;12.03;3.60;;;;;;;;;;5113485;28;20201;-76
2023/05/05 00:53:17;;;;;;;17.33;3.93;;;;;;;;;;5114570;28;20864;-76
2023/05/05 00:55:45;;;;;;;9.23;3.00;;;;;;;;;;5115314;28;20240;-76
2023/05/05 00:58:12;;;;;;;13.53;3.70;;;;;;;;;;5114258;28;20689;-75
2023/05/05 01:00:40;;;;;;;15.93;3.20;;;;;;;;;;5114463;28;20886;-75
2023/05/05 01:03:08;;;;;;;13.37;3.37;;;;;;;;;;5114338;28;20673;-75
2023/05/05 01:05:38;;;;;;;13.43;3.90;;;;;;;;;;5113543;28;20289;-75
2023/05/05 01:08:13;;;;;;;19.13;4.43;;;;;;;;;;5114495;28;20281;-76
2023/05/05 01:10:41;;;;;;;14.67;4.10;;;;;;;;;;5114013;28;20198;-75
2023/05/05 01:13:16;;;;;;;20.93;4.67;;;;;;;;;;5114254;28;20288;-76
2023/05/05 01:15:46;;;;;;;14.50;4.40;;;;;;;;;;5114349;28;20280;-76
2023/05/05 01:18:20;;;;;;;15.37;3.93;;;;;;;;;;5114146;28;20244;-76
2023/05/05 01:20:50;;;;;;;18.63;4.77;;;;;;;;;;5113978;28;20194;-77
2023/05/05 01:23:23;;;;;;;16.50;4.43;;;;;;;;;;5114183;28;20207;-75
2023/05/05 01:26:02;;;;;;;11.73;4.43;;;;;;;;;;5114229;28;20194;-76
2023/05/05 01:28:35;;;;;;;14.20;4.90;;;;;;;;;;5114174;28;20198;-76
2023/05/05 01:31:19;;;;;;;16.37;5.43;;;;;;;;;;5111404;28;20194;-75
2023/05/05 01:33:49;;;;;;;16.00;5.03;;;;;;;;;;5103755;28;20317;-75
2023/05/05 01:36:32;;;;;;;14.07;4.40;;;;;;;;;;5113810;28;20220;-75
2023/05/05 01:39:01;;;;;;;13.97;4.27;;;;;;;;;;5113652;28;20236;-75
2023/05/05 01:41:30;;;;;;;14.10;4.80;;;;;;;;;;5113600;28;20735;-76
2023/05/05 01:44:01;;;;;;;16.50;4.70;;;;;;;;;;5113771;28;20248;-77
2023/05/05 01:46:30;;;;;;;15.20;4.30;;;;;;;;;;5113361;28;20250;-75
2023/05/05 01:48:59;;;;;;;13.73;4.30;;;;;;;;;;5113137;28;20732;-76
2023/05/05 01:51:27;;;;;;;18.53;5.10;;;;;;;;;;5113918;28;20200;-79
2023/05/05 01:53:57;;;;;;;11.47;4.73;;;;;;;;;;5113354;28;20932;-76
2023/05/05 01:56:25;;;;;;;14.13;4.43;;;;;;;;;;5113581;28;20243;-76
2023/05/05 01:58:53;;;;;;;15.27;4.50;;;;;;;;;;5113103;28;20626;-76
2023/05/05 02:01:21;;;;;;;13.50;4.33;;;;;;;;;;5112352;28;20289;-75
2023/05/05 02:03:49;;;;;;;13.17;4.40;;;;;;;;;;5113399;28;20213;-77
2023/05/05 02:06:18;;;;;;;13.00;5.00;;;;;;;;;;5112963;28;20617;-75
2023/05/05 02:08:46;;;;;;;16.67;5.07;;;;;;;;;;5112834;28;20647;-75
2023/05/05 02:11:13;;;;;;;17.13;5.37;;;;;;;;;;5113290;28;20225;-76
2023/05/05 02:13:41;;;;;;;15.13;4.80;;;;;;;;;;5112925;28;20232;-76
2023/05/05 02:16:09;;;;;;;13.33;4.33;;;;;;;;;;5112979;28;20206;-76
2023/05/05 02:18:37;;;;;;;12.33;4.90;;;;;;;;;;5112368;28;20293;-76
2023/05/05 02:21:05;;;;;;;16.30;4.90;;;;;;;;;;5113431;28;20197;-77
2023/05/05 02:23:36;;;;;;;17.73;4.70;;;;;;;;;;5112876;28;20198;-76
2023/05/05 02:26:09;;;;;;;19.73;5.10;;;;;;;;;;5112858;28;20193;-75
2023/05/05 02:28:40;;;;;;;16.37;6.00;;;;;;;;;;5112995;28;20201;-76
2023/05/05 02:31:09;;;;;;;14.10;5.07;;;;;;;;;;5112879;28;20233;-76
2023/05/05 02:33:37;;;;;;;19.40;5.00;;;;;;;;;;5112195;28;20749;-76
2023/05/05 02:36:08;;;;;;;15.87;5.00;;;;;;;;;;5112761;28;20290;-76
2023/05/05 02:38:38;;;;;;;15.27;4.47;;;;;;;;;;5112899;28;20196;-76
2023/05/05 02:41:05;;;;;;;13.27;4.33;;;;;;;;;;5112721;28;20652;-76
2023/05/05 02:43:33;;;;;;;12.20;4.83;;;;;;;;;;5112370;28;20230;-76
2023/05/05 02:46:00;;;;;;;13.53;5.03;;;;;;;;;;5112517;28;20242;-76
2023/05/05 02:48:28;;;;;;;14.67;4.47;;;;;;;;;;5112405;28;20225;-77
2023/05/05 02:50:56;;;;;;;14.77;5.17;;;;;;;;;;5112487;28;20201;-77
2023/05/05 02:53:25;;;;;;;14.60;4.47;;;;;;;;;;5112387;28;20231;-76
2023/05/05 02:55:55;;;;;;;17.10;5.20;;;;;;;;;;5112223;28;20198;-76
2023/05/05 02:58:25;;;;;;;13.73;4.13;;;;;;;;;;5112341;28;20202;-76
2023/05/05 03:00:56;;;;;;;13.20;4.90;;;;;;;;;;5111535;28;20260;-76
2023/05/05 03:03:26;;;;;;;11.37;4.53;;;;;;;;;;5112031;28;20289;-76
2023/05/05 03:05:56;;;;;;;13.23;4.40;;;;;;;;;;5112117;28;20277;-76
2023/05/05 03:08:27;;;;;;;13.80;4.67;;;;;;;;;;5112311;28;20194;-76
2023/05/05 03:10:59;;;;;;;11.13;4.50;;;;;;;;;;5112477;28;20225;-75
2023/05/05 03:13:27;;;;;;;16.50;4.70;;;;;;;;;;5111224;28;20197;-76
2023/05/05 03:15:55;;;;;;;11.60;3.90;;;;;;;;;;5111312;28;20289;-76
2023/05/05 03:18:23;;;;;;;13.73;4.70;;;;;;;;;;5112330;28;20194;-76
2023/05/05 03:20:51;;;;;;;13.70;4.40;;;;;;;;;;5111767;28;20728;-76
2023/05/05 03:23:19;;;;;;;12.27;4.13;;;;;;;;;;5111899;28;20285;-76
2023/05/05 03:25:47;;;;;;;11.47;4.17;;;;;;;;;;5111846;28;20198;-76
2023/05/05 03:28:16;;;;;;;13.27;4.60;;;;;;;;;;5112069;28;20286;-75
2023/05/05 03:30:44;;;;;;;9.53;4.30;;;;;;;;;;5111556;28;20232;-75
2023/05/05 03:33:11;;;;;;;14.57;4.73;;;;;;;;;;5111692;28;20633;-77
2023/05/05 03:35:38;;;;;;;14.67;4.70;;;;;;;;;;5111863;28;21041;-76
2023/05/05 03:38:05;;;;;;;19.50;4.90;;;;;;;;;;5111603;28;20217;-76
2023/05/05 03:40:33;;;;;;;10.83;4.40;;;;;;;;;;5111651;28;20246;-76
2023/05/05 03:43:00;;;;;;;15.33;5.13;;;;;;;;;;5111798;28;20248;-76
2023/05/05 03:45:28;;;;;;;12.87;4.80;;;;;;;;;;5111417;28;20193;-75
2023/05/05 03:47:55;;;;;;;8.63;4.30;;;;;;;;;;5111806;28;20218;-76
2023/05/05 03:50:23;;;;;;;15.73;5.50;;;;;;;;;;5111950;28;20277;-77
2023/05/05 03:52:50;;;;;;;16.90;4.43;;;;;;;;;;5111321;28;20240;-77
2023/05/05 03:55:17;;;;;;;11.17;4.40;;;;;;;;;;5111726;28;20282;-76
2023/05/05 03:57:45;;;;;;;14.60;4.50;;;;;;;;;;5111747;28;20221;-76
2023/05/05 04:00:14;;;;;;;8.90;3.87;;;;;;;;;;5110920;28;20206;-75
2023/05/05 04:02:43;;;;;;;10.37;4.07;;;;;;;;;;5111331;28;20284;-76
2023/05/05 04:05:10;;;;;;;9.27;4.13;;;;;;;;;;5111363;28;20190;-77
2023/05/05 04:07:37;;;;;;;12.67;4.20;;;;;;;;;;5111688;28;20281;-75
2023/05/05 04:10:04;;;;;;;9.90;4.20;;;;;;;;;;5111605;28;20213;-76
2023/05/05 04:12:32;;;;;;;16.53;4.87;;;;;;;;;;5111308;28;20756;-76
2023/05/05 04:14:59;;;;;;;10.30;4.17;;;;;;;;;;5110996;28;20278;-76
2023/05/05 04:17:26;;;;;;;13.43;4.67;;;;;;;;;;5111170;28;20254;-76
2023/05/05 04:19:55;;;;;;;11.87;4.57;;;;;;;;;;5111042;28;20975;-76
2023/05/05 04:22:22;;;;;;;16.83;4.87;;;;;;;;;;5111253;28;20581;-76
2023/05/05 04:24:49;;;;;;;11.40;4.70;;;;;;;;;;5112922;28;20639;-77
2023/05/05 04:27:16;;;;;;;10.50;4.80;;;;;;;;;;5115270;28;20189;-76
2023/05/05 04:29:43;;;;;;;12.03;4.30;;;;;;;;;;5114941;28;20285;-76
2023/05/05 04:32:11;;;;;;;11.80;4.53;;;;;;;;;;5115236;28;20276;-77
2023/05/05 04:34:38;;;;;;;10.63;4.67;;;;;;;;;;5115130;28;20264;-77
2023/05/05 04:37:06;;;;;;;11.70;4.57;;;;;;;;;;5114888;28;20230;-76
2023/05/05 04:39:33;;;;;;;13.80;4.33;;;;;;;;;;5114791;28;20888;-76
2023/05/05 04:42:01;;;;;;;11.83;4.23;;;;;;;;;;5112366;27;20632;-77
2023/05/05 04:44:28;;;;;;;14.03;4.27;;;;;;;;;;5114496;28;20208;-76
2023/05/05 04:46:55;;;;;;;12.07;3.93;;;;;;;;;;5114952;28;20315;-76
2023/05/05 04:49:22;;;;;;;11.57;3.63;;;;;;;;;;5114597;28;20741;-77
2023/05/05 04:51:49;;;;;;;10.83;3.67;;;;;;;;;;5114753;28;20281;-79
2023/05/05 04:54:18;;;;;;;13.20;3.80;;;;;;;;;;5114783;28;20200;-77
2023/05/05 04:56:45;;;;;;;11.00;3.50;;;;;;;;;;5114306;28;20224;-77
2023/05/05 04:59:13;;;;;;;8.80;3.70;;;;;;;;;;5114388;28;20198;-78
2023/05/05 05:01:40;;;;;;;8.70;3.53;;;;;;;;;;5114458;28;20275;-78
2023/05/05 05:04:07;;;;;;;12.60;3.90;;;;;;;;;;5114310;28;20272;-77
2023/05/05 05:06:34;;;;;;;12.07;3.67;;;;;;;;;;5114856;28;20194;-78
2023/05/05 05:09:02;;;;;;;9.77;3.50;;;;;;;;;;5114659;28;20301;-78
2023/05/05 05:11:30;;;;;;;10.70;3.63;;;;;;;;;;5113715;28;20242;-77
2023/05/05 05:13:57;;;;;;;11.83;3.73;;;;;;;;;;5113944;28;20270;-78
2023/05/05 05:16:25;;;;;;;9.47;3.87;;;;;;;;;;5113702;28;20225;-78
2023/05/05 05:18:52;;;;;;;12.30;3.60;;;;;;;;;;5114300;28;20563;-79
2023/05/05 05:21:19;;;;;;;10.70;3.50;;;;;;;;;;5114359;28;20648;-79
2023/05/05 05:23:47;;;;;;;13.37;3.40;;;;;;;;;;5114134;28;20761;-78
2023/05/05 05:26:15;;;;;;;10.70;3.80;;;;;;;;;;5113707;28;20208;-78
2023/05/05 05:28:43;;;;;;;8.80;3.60;;;;;;;;;;5114295;28;20201;-79
2023/05/05 05:31:11;;;;;;;13.07;3.40;;;;;;;;;;5113858;28;20662;-78
2023/05/05 05:33:38;;;;;;;10.40;3.60;;;;;;;;;;5114071;28;20190;-78
2023/05/05 05:36:05;;;;;;;9.23;3.17;;;;;;;;;;5113424;28;20321;-78
2023/05/05 05:38:33;;;;;;;11.07;3.43;;;;;;;;;;5111347;28;20228;-79
2023/05/05 05:41:00;;;;;;;9.83;2.77;;;;;;;;;;5110394;28;20222;-78
2023/05/05 05:43:27;;;;;;;9.53;3.20;;;;;;;;;;5111078;28;20306;-77
2023/05/05 05:45:55;;;;;;;9.10;2.60;;;;;;;;;;5112794;28;20572;-76
2023/05/05 05:48:27;;;;;;;6.23;2.30;;;;;;;;;;5106723;28;20293;-76
2023/05/05 05:50:54;;;;;;;8.63;2.67;;;;;;;;;;5111984;27;20206;-75
2023/05/05 05:53:21;;;;;;;10.17;2.53;;;;;;;;;;5113471;28;20731;-76
2023/05/05 05:55:48;;;;;;;8.03;2.30;;;;;;;;;;5113368;28;20230;-76
2023/05/05 05:58:17;;;;;;;8.50;2.30;;;;;;;;;;5113740;28;20236;-76
2023/05/05 06:00:44;;;;;;;10.53;2.50;;;;;;;;;;5113062;28;20638;-75
2023/05/05 06:03:12;;;;;;;10.07;2.20;;;;;;;;;;5113526;28;20371;-76
2023/05/05 06:05:40;;;;;;;9.25;2.10;;;;;;;;;;5113169;28;20228;-76
2023/05/05 06:08:08;;;;;;;8.80;2.22;;;;;;;;;;5113336;28;20208;-75
2023/05/05 06:10:35;;;;;;;6.32;1.95;;;;;;;;;;5113147;28;20193;-76
2023/05/05 06:13:02;;;;;;;5.78;2.15;;;;;;;;;;5113556;28;20285;-75
2023/05/05 06:15:29;;;;;;;9.77;2.40;;;;;;;;;;5093077;28;20221;-76
2023/05/05 06:17:56;;;;;;;8.95;2.17;;;;;;;;;;5093177;28;20236;-75
2023/05/05 06:20:25;;;;;;;8.88;2.42;;;;;;;;;;5093147;28;20194;-75
2023/05/05 06:22:52;;;;;;;7.82;1.98;;;;;;;;;;5092848;28;20293;-76
2023/05/05 06:25:19;;;;;;;9.50;2.08;;;;;;;;;;5092361;28;20289;-77
2023/05/05 06:27:46;;;;;;;9.27;2.60;;;;;;;;;;5092911;28;20285;-76
2023/05/05 06:30:14;;;;;;;5.88;2.47;;;;;;;;;;5092696;28;20293;-76
2023/05/05 06:32:41;;;;;;;9.00;3.00;;;;;;;;;;5092910;28;20194;-76
2023/05/05 06:35:09;;;;;;;6.80;3.17;;;;;;;;;;5092704;28;20313;-76
2023/05/05 06:37:38;;;;;;;9.90;2.88;;;;;;;;;;5092383;28;20285;-76
2023/05/05 06:40:06;;;;;;;7.20;2.83;;;;;;;;;;5091882;28;20194;-76
2023/05/05 06:42:34;;;;;;;9.73;2.95;;;;;;;;;;5092179;28;20658;-76
2023/05/05 06:45:02;;;;;;;11.73;3.17;;;;;;;;;;5092620;28;20194;-75
2023/05/05 06:47:29;;;;;;;11.40;2.45;;;;;;;;;;5091807;28;20293;-76
2023/05/05 06:49:56;;;;;;;10.15;2.67;;;;;;;;;;5092399;28;20230;-76
2023/05/05 06:52:23;;;;;;;14.65;2.70;;;;;;;;;;5092166;28;20297;-76
2023/05/05 06:54:52;;;;;;;9.15;2.50;;;;;;;;;;5091788;28;20315;-76
2023/05/05 06:57:19;;;;;;;9.43;2.95;;;;;;;;;;5091979;28;20739;-76
2023/05/05 06:59:46;;;;;;;9.45;2.42;;;;;;;;;;5092047;28;20206;-75
2023/05/05 07:02:13;;;;;;;9.27;1.98;;;;;;;;;;5092252;28;20623;-75
2023/05/05 07:04:41;;;;;;;11.80;2.08;;;;;;;;;;5092041;28;20201;-77
2023/05/05 07:07:08;;;;;;;7.68;2.17;;;;;;;;;;5092044;28;20634;-77
2023/05/05 07:09:35;;;;;;;12.68;2.88;;;;;;;;;;5091593;28;20289;-77
2023/05/05 07:12:04;;;;;;;11.55;2.42;;;;;;;;;;5092003;28;20227;-77
2023/05/05 07:14:31;;;;;;;11.00;2.42;;;;;;;;;;5104247;28;20289;-77
2023/05/05 07:16:58;;;;;;;9.48;2.67;;;;;;;;;;5112185;28;20268;-76
2023/05/05 07:19:25;;;;;;;10.93;2.75;;;;;;;;;;5112231;28;20281;-77
2023/05/05 07:21:52;;;;;;;13.52;2.92;;;;;;;;;;5111887;28;20274;-77
2023/05/05 07:24:20;;;;;;;7.75;2.00;;;;;;;;;;5112273;28;20266;-77
2023/05/05 07:26:47;;;;;;;8.90;2.53;;;;;;;;;;5111991;28;20284;-77
2023/05/05 07:29:15;;;;;;;14.98;2.88;;;;;;;;;;5111748;28;20297;-77
2023/05/05 07:31:42;;;;;;;13.20;2.95;;;;;;;;;;5112538;28;20280;-77
2023/05/05 07:34:10;;;;;;;10.57;2.35;;;;;;;;;;5112177;28;20217;-76
2023/05/05 07:36:37;;;;;;;10.27;2.50;;;;;;;;;;5111616;28;20225;-77
2023/05/05 07:39:04;;;;;;;11.30;2.60;;;;;;;;;;5112059;28;20198;-77
2023/05/05 07:41:31;;;;;;;12.75;2.70;;;;;;;;;;5112318;28;20284;-77
2023/05/05 07:43:59;;;;;;;8.30;3.03;;;;;;;;;;5111786;28;20229;-77
2023/05/05 07:46:28;;;;;;;11.63;2.53;;;;;;;;;;5111863;28;20189;-77
2023/05/05 07:48:55;;;;;;;13.80;2.97;;;;;;;;;;5111891;28;20204;-77
2023/05/05 07:51:22;;;;;;;10.13;1.90;;;;;;;;;;5111343;28;20238;-76
2023/05/05 07:53:50;;;;;;;11.20;2.33;;;;;;;;;;5112074;28;20246;-77
2023/05/05 07:56:17;;;;;;;10.95;2.55;;;;;;;;;;5111656;28;20762;-76
2023/05/05 07:58:44;;;;;;;14.85;2.42;;;;;;;;;;5113250;28;20288;-76
2023/05/05 08:01:12;;;;;;;15.63;2.53;;;;;;;;;;5116112;28;20190;-77
2023/05/05 08:03:40;;;;;;;9.13;2.10;;;;;;;;;;5116123;28;20232;-76
2023/05/05 08:06:08;;;;;;;11.60;2.20;;;;;;;;;;5115414;28;20248;-77
2023/05/05 08:08:35;;;;;;;11.55;2.50;;;;;;;;;;5116127;28;20197;-77
2023/05/05 08:11:03;;;;;;;7.50;2.00;;;;;;;;;;5115944;28;20225;-77
2023/05/05 08:13:31;;;;;;;12.10;1.98;;;;;;;;;;5115411;28;20194;-77
2023/05/05 08:15:58;;;;;;;9.95;2.20;;;;;;;;;;5115910;28;20312;-77
2023/05/05 08:18:26;;;;;;;10.32;2.08;;;;;;;;;;5115984;28;20198;-77
2023/05/05 08:20:54;;;;;;;8.68;2.05;;;;;;;;;;5115136;28;20565;-77
2023/05/05 08:23:22;;;;;;;11.35;2.80;;;;;;;;;;5115486;28;20235;-77
2023/05/05 08:25:49;;;;;;;10.07;2.20;;;;;;;;;;5115750;28;20236;-77
2023/05/05 08:28:16;;;;;;;5.43;1.98;;;;;;;;;;5115429;28;20286;-77
2023/05/05 08:30:43;;;;;;;11.25;2.00;;;;;;;;;;5115539;28;20282;-77
2023/05/05 08:33:10;;;;;;;8.77;1.83;;;;;;;;;;5115891;28;20226;-78
2023/05/05 08:35:37;;;;;;;9.50;2.38;;;;;;;;;;5114592;28;20587;-76
2023/05/05 08:38:06;;;;;;;12.85;2.42;;;;;;;;;;5115117;28;20189;-77
2023/05/05 08:40:35;;;;;;;10.40;2.45;;;;;;;;;;5115397;28;20284;-77
2023/05/05 08:43:02;;;;;;;13.00;2.35;;;;;;;;;;5115449;28;20260;-76
2023/05/05 08:45:30;;;;;;;9.88;2.30;;;;;;;;;;5114927;28;20232;-77
2023/05/05 08:47:57;;;;;;;11.98;2.33;;;;;;;;;;5115102;28;20222;-77
2023/05/05 08:50:26;;;;;;;12.73;2.30;;;;;;;;;;5114916;28;20190;-78
2023/05/05 08:52:54;;;;;;;6.13;1.88;;;;;;;;;;5115005;28;20200;-76
2023/05/05 08:55:24;;;;;;;11.20;2.45;;;;;;;;;;5114872;28;20281;-77
2023/05/05 08:57:52;;;;;;;8.15;2.10;;;;;;;;;;5115293;28;20193;-77
2023/05/05 09:00:19;;;;;;;6.20;1.92;;;;;;;;;;5115170;28;20733;-77
2023/05/05 09:02:47;;;;;;;8.80;2.00;;;;;;;;;;5115005;28;20232;-76
2023/05/05 09:05:14;;;;;;;7.60;2.03;;;;;;;;;;5113985;28;20293;-76
2023/05/05 09:07:42;;;;;;;8.82;2.35;;;;;;;;;;5115057;28;20205;-77
2023/05/05 09:10:11;;;;;;;10.27;2.33;;;;;;;;;;5114014;28;20224;-78
2023/05/05 09:12:40;;;;;;;10.13;2.08;;;;;;;;;;5114661;28;20189;-77
2023/05/05 09:15:08;;;;;;;7.82;1.73;;;;;;;;;;5114544;28;20233;-78
2023/05/05 09:17:36;;;;;;;9.20;2.10;;;;;;;;;;5114366;28;20320;-78
2023/05/05 09:20:04;;;;;;;7.55;2.13;;;;;;;;;;5114607;28;20208;-78
2023/05/05 09:22:35;;;;;;;6.40;1.77;;;;;;;;;;5114754;28;20293;-77
2023/05/05 09:25:03;;;;;;;5.90;1.60;;;;;;;;;;5114541;28;20220;-77
2023/05/05 09:27:30;;;;;;;12.52;2.50;;;;;;;;;;5114252;28;20201;-77
2023/05/05 09:29:59;;;;;;;11.07;2.60;;;;;;;;;;5114268;28;20190;-76
2023/05/05 09:32:26;;;;;;;11.98;2.80;;;;;;;;;;5113958;28;20296;-76
2023/05/05 09:35:00;;;;;;;11.35;2.97;;;;;;;;;;5114451;28;20198;-76
2023/05/05 09:37:28;;;;;;;8.02;2.70;;;;;;;;;;5113890;28;20315;-77
2023/05/05 09:39:56;;;;;;;10.40;3.38;;;;;;;;;;5113789;28;20202;-76
2023/05/05 09:42:23;;;;;;;9.38;2.45;;;;;;;;;;5113919;28;20322;-77
2023/05/05 09:44:50;;;;;;;8.07;2.63;;;;;;;;;;5114225;28;20293;-75
2023/05/05 09:47:19;;;;;;;11.35;3.78;;;;;;;;;;5113510;28;20202;-76
2023/05/05 09:49:57;;;;;;;10.27;3.10;;;;;;;;;;5114168;28;20224;-76
2023/05/05 09:52:24;;;;;;;11.05;3.30;;;;;;;;;;5113638;28;20195;-76
2023/05/05 09:54:55;;;;;;;11.25;2.83;;;;;;;;;;5113709;28;20232;-76
2023/05/05 09:57:31;;;;;;;9.88;2.70;;;;;;;;;;5113387;28;20600;-75
2023/05/05 09:59:59;;;;;;;5.40;2.50;;;;;;;;;;5113970;28;20225;-75
2023/05/05 10:02:35;;;;;;;11.80;2.85;;;;;;;;;;5113058;28;20224;-76
2023/05/05 10:05:05;;;;;;;7.32;2.10;;;;;;;;;;5113775;28;20288;-75
2023/05/05 10:07:33;;;;;;;5.93;2.10;;;;;;;;;;5113467;28;20204;-75
2023/05/05 10:10:00;;;;;;;8.85;2.50;;;;;;;;;;5113555;28;20292;-76
2023/05/05 10:12:27;;;;;;;5.38;2.40;;;;;;;;;;5113385;28;20193;-76
2023/05/05 10:14:56;;;;;;;6.13;2.00;;;;;;;;;;5113441;28;20702;-76
2023/05/05 10:17:23;;;;;;;6.53;1.75;;;;;;;;;;5113174;28;20320;-76
2023/05/05 10:19:53;;;;;;;2.83;1.40;;;;;;;;;;5113171;28;20627;-76
2023/05/05 10:22:22;;;;;;;4.32;1.30;;;;;;;;;;5112300;28;20226;-76
2023/05/05 10:24:51;;;;;;;6.00;1.35;;;;;;;;;;5113159;28;20280;-78
2023/05/05 10:27:20;;;;;;;4.30;1.35;;;;;;;;;;5113169;28;20677;-76
2023/05/05 10:29:49;;;;;;;3.95;1.50;;;;;;;;;;5113044;28;20189;-77
2023/05/05 10:32:22;;;;;;;6.07;1.92;;;;;;;;;;5112806;28;20367;-78
2023/05/05 10:34:55;;;;;;;7.63;1.90;;;;;;;;;;5102997;28;20941;-78
2023/05/05 10:37:22;;;;;;;9.45;2.30;;;;;;;;;;5109420;28;20221;-79
2023/05/05 10:39:51;;;;;;;8.40;2.40;;;;;;;;;;5111727;28;20190;-79
2023/05/05 10:42:20;;;;;;;8.85;2.72;;;;;;;;;;5113440;28;20250;-78
2023/05/05 10:45:01;;;;;;;6.75;2.00;;;;;;;;;;5127740;27;21026;-79
2023/05/05 10:47:29;;;;;;;8.48;2.60;;;;;;;;;;5125741;28;20189;-79
2023/05/05 10:49:59;;;;;;;7.53;2.53;;;;;;;;;;5128523;28;20192;-78
2023/05/05 10:52:32;;;;;;;7.90;1.80;;;;;;;;;;5128681;28;20193;-78
2023/05/05 10:55:03;;;;;;;10.90;2.53;;;;;;;;;;5128055;28;20193;-77
2023/05/05 10:57:33;;;;;;;10.73;2.60;;;;;;;;;;5125526;28;20601;-78
2023/05/05 11:00:01;;;;;;;10.27;2.40;;;;;;;;;;5127661;28;20200;-78
2023/05/05 11:02:30;;;;;;;7.63;2.58;;;;;;;;;;5125695;28;20193;-79
2023/05/05 11:05:08;;;;;;;9.98;2.40;;;;;;;;;;5128237;28;20204;-80
2023/05/05 11:07:35;;;;;;;9.02;2.90;;;;;;;;;;5126154;28;20196;-79
2023/05/05 11:10:03;;;;;;;8.18;2.28;;;;;;;;;;5127207;28;20239;-79
2023/05/05 11:12:30;;;;;;;5.22;1.40;;;;;;;;;;5124314;28;20224;-80
2023/05/05 11:15:16;;;;;;;5.88;1.83;;;;;;;;;;5125751;28;20630;-79
2023/05/05 11:17:48;;;;;;;7.43;1.65;;;;;;;;;;5121750;27;20760;-79
2023/05/05 11:20:15;;;;;;;5.70;1.55;;;;;;;;;;5121964;27;20205;-80
2023/05/05 11:23:01;;;;;;;7.03;1.50;;;;;;;;;;5124468;28;20205;-79
2023/05/05 11:25:46;;;;;;;3.35;1.40;;;;;;;;;;5123238;28;20288;-80
2023/05/05 11:28:15;;;;;;;3.72;1.15;;;;;;;;;;5122504;28;20298;-80
2023/05/05 11:30:57;;;;;;;5.68;1.50;;;;;;;;;;5123315;28;20746;-80
2023/05/05 11:33:27;;;;;;;5.03;1.45;;;;;;;;;;5123560;28;20209;-80
2023/05/05 11:35:57;;;;;;;4.28;1.20;;;;;;;;;;5121392;28;20274;-80
2023/05/05 11:38:27;;;;;;;4.90;1.00;;;;;;;;;;5121757;28;20233;-79
2023/05/05 11:40:57;;;;;;;5.25;1.42;;;;;;;;;;5122029;28;20732;-80
2023/05/05 11:43:24;;;;;;;5.80;1.33;;;;;;;;;;5119495;28;20333;-79
2023/05/05 11:46:10;;;;;;;4.72;1.25;;;;;;;;;;5122474;28;20293;-80
2023/05/05 11:48:45;;;;;;;5.97;1.50;;;;;;;;;;5120163;28;20197;-79
2023/05/05 11:51:13;;;;;;;6.07;1.58;;;;;;;;;;5124130;28;20288;-80
2023/05/05 11:53:42;;;;;;;7.03;1.58;;;;;;;;;;5122403;27;20292;-80
2023/05/05 11:56:10;;;;;;;5.68;1.58;;;;;;;;;;5109612;28;20236;-80
2023/05/05 11:58:37;;;;;;;7.95;1.60;;;;;;;;;;5110353;28;20189;-79
2023/05/05 12:01:05;;;;;;;7.18;1.63;;;;;;;;;;5110115;28;20738;-80
2023/05/05 12:03:35;;;;;;;6.45;1.80;;;;;;;;;;5110416;28;20221;-81
2023/05/05 12:06:03;;;;;;;5.95;1.50;;;;;;;;;;5112787;27;20201;-80
2023/05/05 12:08:36;;;;;;;5.13;1.30;;;;;;;;;;5110408;28;20280;-80
2023/05/05 12:11:03;;;;;;;5.57;1.38;;;;;;;;;;5110452;28;20666;-81
2023/05/05 12:13:30;;;;;;;6.45;1.52;;;;;;;;;;5110030;28;20743;-80
2023/05/05 12:15:58;;;;;;;5.40;1.50;;;;;;;;;;5110356;28;20194;-81
2023/05/05 12:18:25;;;;;;;5.55;1.35;;;;;;;;;;5110297;28;20202;-80
2023/05/05 12:20:52;;;;;;;4.78;1.30;;;;;;;;;;5108907;28;20297;-80
2023/05/05 12:23:20;;;;;;;5.85;1.63;;;;;;;;;;5109635;28;20268;-80
2023/05/05 12:25:48;;;;;;;7.15;1.60;;;;;;;;;;5104384;28;20638;-80
2023/05/05 12:28:15;;;;;;;7.57;1.55;;;;;;;;;;5109674;28;20225;-80
2023/05/05 12:30:42;;;;;;;3.95;1.60;;;;;;;;;;5108476;28;20240;-80
2023/05/05 12:33:09;;;;;;;8.45;1.98;;;;;;;;;;5109724;28;20289;-79
2023/05/05 12:35:37;;;;;;;4.15;1.40;;;;;;;;;;5110425;27;20593;-80
2023/05/05 12:38:04;;;;;;;5.93;1.30;;;;;;;;;;5106347;28;20284;-80
2023/05/05 12:40:50;;;;;;;3.90;1.20;;;;;;;;;;5109174;28;20231;-80
2023/05/05 12:43:25;;;;;;;6.65;1.48;;;;;;;;;;5109671;28;20340;-80
2023/05/05 12:45:59;;;;;;;6.38;1.40;;;;;;;;;;5110715;28;20197;-80
2023/05/05 12:48:26;;;;;;;5.75;1.42;;;;;;;;;;5106552;28;20285;-81
2023/05/05 12:50:53;;;;;;;3.13;0.98;;;;;;;;;;5110021;28;20328;-80
2023/05/05 12:53:21;;;;;;;3.55;1.00;;;;;;;;;;5109692;28;20293;-80
2023/05/05 12:55:50;;;;;;;5.10;0.93;;;;;;;;;;5105461;28;20206;-80
2023/05/05 12:58:18;;;;;;;3.17;0.90;;;;;;;;;;5097399;28;20448;-79
2023/05/05 13:00:45;;;;;;;2.78;0.95;;;;;;;;;;5113066;28;20280;-79
2023/05/05 13:03:21;;;;;;;4.63;0.77;;;;;;;;;;5105254;28;20284;-80
2023/05/05 13:05:48;;;;;;;2.92;1.27;;;;;;;;;;5112780;28;20189;-80
2023/05/05 13:08:17;;;;;;;3.40;1.15;;;;;;;;;;5112351;28;20281;-81
2023/05/05 13:10:58;;;;;;;4.85;1.25;;;;;;;;;;5091972;28;20754;-78
2023/05/05 13:13:25;;;;;;;5.85;1.25;;;;;;;;;;5094216;28;20204;-79
2023/05/05 13:15:52;;;;;;;3.05;1.20;;;;;;;;;;5112703;28;20218;-79
2023/05/05 13:18:19;;;;;;;3.08;1.30;;;;;;;;;;5113194;28;20225;-79
2023/05/05 13:20:46;;;;;;;5.03;1.50;;;;;;;;;;5103041;28;20236;-78
2023/05/05 13:23:14;;;;;;;6.07;1.23;;;;;;;;;;5112209;28;20280;-78
2023/05/05 13:25:41;;;;;;;3.97;1.33;;;;;;;;;;5111309;28;20652;-79
2023/05/05 13:28:09;;;;;;;6.75;1.33;;;;;;;;;;5112423;28;20302;-80
2023/05/05 13:30:36;;;;;;;4.03;1.30;;;;;;;;;;5113735;27;20295;-79
2023/05/05 13:33:04;;;;;;;5.88;1.30;;;;;;;;;;5107005;27;20585;-80
2023/05/05 13:35:31;;;;;;;4.30;1.38;;;;;;;;;;5103933;28;20244;-81
2023/05/05 13:37:58;;;;;;;6.43;1.45;;;;;;;;;;5111690;28;20810;-81
2023/05/05 13:40:25;;;;;;;5.90;1.40;;;;;;;;;;5111639;28;20225;-81
2023/05/05 13:42:52;;;;;;;7.07;1.58;;;;;;;;;;5111166;28;20317;-80
2023/05/05 13:45:21;;;;;;;8.18;1.40;;;;;;;;;;5101410;28;20312;-81
2023/05/05 13:47:48;;;;;;;5.68;1.40;;;;;;;;;;5116516;27;20200;-81
2023/05/05 13:50:17;;;;;;;3.60;1.23;;;;;;;;;;5112622;27;20289;-81
2023/05/05 13:52:44;;;;;;;6.47;1.55;;;;;;;;;;5111937;28;20643;-80
2023/05/05 13:55:11;;;;;;;7.05;1.20;;;;;;;;;;5106761;28;20713;-81
2023/05/05 13:57:38;;;;;;;3.67;1.17;;;;;;;;;;5109364;27;20633;-80
2023/05/05 14:00:06;;;;;;;4.32;1.25;;;;;;;;;;5111521;27;20737;-79
2023/05/05 14:02:35;;;;;;;6.97;1.30;;;;;;;;;;5108853;28;20254;-81
2023/05/05 14:05:02;;;;;;;10.27;1.73;;;;;;;;;;5101579;27;20602;-80
2023/05/05 14:07:29;;;;;;;5.93;1.30;;;;;;;;;;5096249;28;20280;-80
2023/05/05 14:09:56;;;;;;;4.07;1.10;;;;;;;;;;5111697;28;20194;-80
2023/05/05 14:12:24;;;;;;;3.55;1.33;;;;;;;;;;5111296;28;20209;-81
2023/05/05 14:14:51;;;;;;;3.65;1.30;;;;;;;;;;5106044;28;20233;-81
2023/05/05 14:17:18;;;;;;;5.07;1.60;;;;;;;;;;5110924;28;20284;-81
2023/05/05 14:19:46;;;;;;;4.13;1.05;;;;;;;;;;5112023;28;20200;-81
2023/05/05 14:22:14;;;;;;;5.78;1.20;;;;;;;;;;5121259;27;20240;-81
2023/05/05 14:24:41;;;;;;;6.10;1.30;;;;;;;;;;5132105;27;20316;-80
2023/05/05 14:27:08;;;;;;;3.70;1.30;;;;;;;;;;5119973;27;20221;-81
2023/05/05 14:29:35;;;;;;;6.40;1.30;;;;;;;;;;5107685;28;20288;-79
2023/05/05 14:32:02;;;;;;;6.05;1.40;;;;;;;;;;5104069;28;20297;-81
2023/05/05 14:34:29;;;;;;;4.20;1.30;;;;;;;;;;5111761;28;20280;-80
2023/05/05 14:36:58;;;;;;;5.03;1.50;;;;;;;;;;5111060;28;20244;-80
2023/05/05 14:39:25;;;;;;;5.60;1.52;;;;;;;;;;5107676;27;20280;-81
2023/05/05 14:41:53;;;;;;;5.90;1.60;;;;;;;;;;5108957;28;20658;-81
2023/05/05 14:44:20;;;;;;;7.57;1.50;;;;;;;;;;5111940;28;20610;-81